Time;durP1;ratioP1;P1;durP2;ratioP2;P2;SDS_P1;SDS_P2;PMS_P1;PMS_P2;Temp;Humidity;BMP_temperature;BMP_pressure;BME280_temperature;BME280_humidity;BME280_pressure;Samples;Min_cycle;Max_cycle;Signal;HPM_P1;HPM_P2
2023/03/09 00:00:47;;;;;;;3.58;1.45;;;;;;;7.64;100.00;93445.63;5006894;28;20057;-71
2023/03/09 00:03:21;;;;;;;3.35;1.80;;;;;;;7.71;100.00;93438.09;5004095;28;20035;-71
2023/03/09 00:05:57;;;;;;;2.35;1.50;;;;;;;7.73;100.00;93441.22;5007673;28;20044;-73
2023/03/09 00:08:24;;;;;;;2.80;1.52;;;;;;;7.67;100.00;93445.03;5011179;28;20049;-72
2023/03/09 00:10:52;;;;;;;2.83;1.58;;;;;;;7.92;100.00;93445.44;5009131;28;20038;-72
2023/03/09 00:13:19;;;;;;;2.90;1.60;;;;;;;7.93;100.00;93439.09;5012663;28;20038;-70
2023/03/09 00:15:49;;;;;;;2.67;1.52;;;;;;;7.95;100.00;93452.69;5011789;28;20056;-72
2023/03/09 00:18:22;;;;;;;3.38;1.63;;;;;;;8.00;100.00;93455.16;5011643;28;20504;-72
2023/03/09 00:20:48;;;;;;;6.30;1.90;;;;;;;8.07;100.00;93442.38;5003746;28;20053;-72
2023/03/09 00:23:17;;;;;;;2.67;1.58;;;;;;;8.20;100.00;93458.31;5010579;28;20042;-72
2023/03/09 00:25:44;;;;;;;8.43;1.90;;;;;;;8.29;100.00;93456.50;5011129;28;20050;-72
2023/03/09 00:28:10;;;;;;;6.50;1.65;;;;;;;8.27;100.00;93448.91;5011292;28;20116;-72
2023/03/09 00:30:35;;;;;;;2.58;1.60;;;;;;;8.13;100.00;93451.69;5009677;28;20045;-72
2023/03/09 00:33:01;;;;;;;2.53;1.50;;;;;;;8.05;100.00;93441.94;5007525;28;20493;-70
2023/03/09 00:35:27;;;;;;;3.92;1.60;;;;;;;8.25;100.00;93451.09;5007750;28;20046;-70
2023/03/09 00:37:53;;;;;;;2.13;1.38;;;;;;;8.33;100.00;93428.59;5011454;28;20100;-71
2023/03/09 00:40:19;;;;;;;2.42;1.45;;;;;;;8.44;100.00;93432.50;5011845;28;20281;-71
2023/03/09 00:42:45;;;;;;;3.17;1.50;;;;;;;8.39;100.00;93424.75;5007824;28;20041;-71
2023/03/09 00:45:12;;;;;;;2.35;1.30;;;;;;;8.67;100.00;93429.75;5007322;28;20091;-71
2023/03/09 00:47:39;;;;;;;2.75;1.20;;;;;;;8.59;100.00;93417.41;5013583;28;20049;-71
2023/03/09 00:50:06;;;;;;;4.15;1.48;;;;;;;8.59;100.00;93433.13;5011550;28;20041;-70
2023/03/09 00:52:32;;;;;;;1.95;1.10;;;;;;;8.88;100.00;93423.88;5006622;28;20038;-71
2023/03/09 00:54:58;;;;;;;1.80;1.10;;;;;;;8.82;100.00;93418.00;5010132;28;20042;-71
2023/03/09 00:57:25;;;;;;;3.28;1.15;;;;;;;8.86;100.00;93420.81;5010053;28;20096;-71
2023/03/09 00:59:51;;;;;;;2.70;1.02;;;;;;;9.04;100.00;93427.59;5010146;28;20038;-71
2023/03/09 01:02:18;;;;;;;2.25;1.15;;;;;;;9.00;100.00;93416.16;5009119;28;20038;-71
2023/03/09 01:04:45;;;;;;;1.65;1.15;;;;;;;9.26;100.00;93418.00;5005191;28;20416;-71
2023/03/09 01:07:10;;;;;;;1.40;1.00;;;;;;;9.29;100.00;93412.13;5009628;28;20052;-72
2023/03/09 01:09:37;;;;;;;2.25;0.88;;;;;;;9.26;100.00;93402.25;5010738;28;20042;-71
2023/03/09 01:12:04;;;;;;;1.33;0.88;;;;;;;9.23;100.00;93397.63;5009326;28;20039;-71
2023/03/09 01:14:30;;;;;;;1.63;0.90;;;;;;;9.31;100.00;93394.19;5007397;28;20056;-71
2023/03/09 01:16:55;;;;;;;3.55;1.00;;;;;;;9.25;100.00;93395.44;5009213;28;20046;-72
2023/03/09 01:19:21;;;;;;;1.88;0.80;;;;;;;9.28;100.00;93400.06;5010117;28;20513;-72
2023/03/09 01:21:47;;;;;;;0.77;0.77;;;;;;;9.26;100.00;93383.88;5006293;28;20117;-72
2023/03/09 01:24:12;;;;;;;0.55;0.50;;;;;;;9.23;100.00;93387.13;5009125;28;20038;-72
2023/03/09 01:26:38;;;;;;;1.58;0.60;;;;;;;9.37;100.00;93392.97;5010213;28;20041;-72
2023/03/09 01:29:03;;;;;;;0.90;0.70;;;;;;;9.39;100.00;93375.03;5008715;28;20068;-72
2023/03/09 01:31:29;;;;;;;1.95;0.47;;;;;;;9.46;100.00;93391.06;5010729;28;20398;-72
2023/03/09 01:33:54;;;;;;;0.60;0.60;;;;;;;9.47;100.00;93390.00;5007164;28;20046;-72
2023/03/09 01:36:20;;;;;;;2.00;0.80;;;;;;;9.35;100.00;93411.66;5008971;28;20516;-72
2023/03/09 01:38:47;;;;;;;0.50;0.50;;;;;;;9.40;100.00;93408.06;5010154;28;20042;-72
2023/03/09 01:41:14;;;;;;;0.70;0.70;;;;;;;9.48;100.00;93403.88;5004927;28;20046;-72
2023/03/09 01:43:42;;;;;;;1.05;0.70;;;;;;;9.46;100.00;93408.69;5006525;28;20048;-72
2023/03/09 01:46:29;;;;;;;2.03;0.75;;;;;;;9.41;100.00;93404.38;5009601;28;20053;-72
2023/03/09 01:49:00;;;;;;;0.95;0.70;;;;;;;9.50;100.00;93407.75;5004635;28;20475;-71
2023/03/09 01:51:33;;;;;;;0.70;0.60;;;;;;;9.67;100.00;93412.16;5006142;28;20088;-71
2023/03/09 01:54:02;;;;;;;0.35;0.35;;;;;;;9.63;100.00;93399.97;5009700;28;20133;-70
2023/03/09 01:56:29;;;;;;;0.70;0.45;;;;;;;9.78;100.00;93396.81;5009177;28;20482;-71
2023/03/09 01:58:55;;;;;;;1.25;0.70;;;;;;;9.62;100.00;93377.44;5006764;28;20568;-71
2023/03/09 02:01:22;;;;;;;0.80;0.55;;;;;;;9.66;100.00;93380.97;5008526;28;20041;-71
2023/03/09 02:03:52;;;;;;;0.28;0.28;;;;;;;9.80;100.00;93389.41;5002253;28;20115;-71
2023/03/09 02:06:21;;;;;;;0.95;0.57;;;;;;;9.82;100.00;93360.19;5010751;28;20065;-71
2023/03/09 02:09:11;;;;;;;0.90;0.40;;;;;;;9.81;100.00;93366.53;5006689;28;20042;-72
2023/03/09 02:11:37;;;;;;;0.30;0.20;;;;;;;9.93;100.00;93352.69;5008643;28;20049;-71
2023/03/09 02:14:03;;;;;;;0.47;0.43;;;;;;;9.73;100.00;93352.34;5007364;28;20034;-71
2023/03/09 02:16:28;;;;;;;0.30;0.30;;;;;;;9.63;100.00;93360.59;5009857;28;20053;-71
2023/03/09 02:18:54;;;;;;;0.38;0.38;;;;;;;9.77;100.00;93353.28;5007702;28;20088;-71
2023/03/09 02:21:33;;;;;;;0.47;0.43;;;;;;;9.77;100.00;93368.25;5005441;28;20038;-71
2023/03/09 02:23:58;;;;;;;0.30;0.30;;;;;;;9.81;100.00;93345.50;4999253;28;20578;-71
2023/03/09 02:26:45;;;;;;;0.40;0.40;;;;;;;9.83;100.00;93383.53;5012243;28;20041;-72
2023/03/09 02:29:12;;;;;;;0.40;0.40;;;;;;;9.74;100.00;93374.91;5005170;28;20038;-72
2023/03/09 02:31:38;;;;;;;1.58;0.45;;;;;;;9.78;100.00;93420.47;5004817;28;20426;-72
2023/03/09 02:34:03;;;;;;;1.20;0.52;;;;;;;9.79;100.00;93424.63;5007074;28;20037;-72
2023/03/09 02:36:29;;;;;;;0.50;0.30;;;;;;;9.88;100.00;93412.25;5008052;28;20125;-72
2023/03/09 02:39:00;;;;;;;0.57;0.30;;;;;;;9.77;100.00;93416.31;5008193;28;20053;-72
2023/03/09 02:41:26;;;;;;;0.45;0.30;;;;;;;9.73;100.00;93425.91;5005474;28;20042;-72
2023/03/09 02:43:55;;;;;;;0.32;0.32;;;;;;;9.60;100.00;93453.13;5007293;28;20509;-72
2023/03/09 02:46:21;;;;;;;1.00;0.63;;;;;;;9.24;100.00;93425.38;5009981;28;20100;-72
2023/03/09 02:48:46;;;;;;;0.40;0.40;;;;;;;8.83;100.00;93416.94;5007463;28;21969;-73
2023/03/09 02:51:12;;;;;;;1.13;0.60;;;;;;;8.71;100.00;93451.66;5004400;28;20044;-72
2023/03/09 02:53:38;;;;;;;0.93;0.60;;;;;;;8.43;100.00;93504.34;5009023;28;20100;-73
2023/03/09 02:56:04;;;;;;;1.92;0.65;;;;;;;8.10;100.00;93517.78;5008722;28;20042;-74
2023/03/09 02:58:29;;;;;;;1.42;0.73;;;;;;;7.83;100.00;93494.38;5007505;28;20042;-72
2023/03/09 03:00:55;;;;;;;2.30;0.65;;;;;;;7.71;100.00;93495.69;5008996;28;20046;-72
2023/03/09 03:03:21;;;;;;;1.05;0.50;;;;;;;7.60;100.00;93489.16;5004645;28;20049;-72
2023/03/09 03:05:47;;;;;;;0.60;0.60;;;;;;;7.54;100.00;93527.03;5006900;28;20038;-71
2023/03/09 03:08:13;;;;;;;1.55;0.47;;;;;;;7.56;100.00;93543.22;5009165;28;20108;-72
2023/03/09 03:10:39;;;;;;;0.85;0.55;;;;;;;7.43;100.00;93521.25;5008345;28;20504;-72
2023/03/09 03:13:04;;;;;;;0.40;0.40;;;;;;;7.31;100.00;93500.84;5002323;28;20107;-72
2023/03/09 03:15:30;;;;;;;0.88;0.70;;;;;;;7.21;100.00;93493.22;5007986;28;20471;-73
2023/03/09 03:17:56;;;;;;;2.67;0.70;;;;;;;7.12;100.00;93480.09;5009911;28;20049;-72
2023/03/09 03:20:22;;;;;;;1.33;0.70;;;;;;;7.15;100.00;93489.19;5004271;28;20868;-72
2023/03/09 03:22:47;;;;;;;2.65;0.88;;;;;;;7.10;100.00;93493.47;5007722;28;20046;-72
2023/03/09 03:25:13;;;;;;;2.47;0.80;;;;;;;7.09;100.00;93486.69;5007943;28;20046;-72
2023/03/09 03:27:40;;;;;;;0.80;0.60;;;;;;;7.02;100.00;93481.09;5009463;28;20417;-72
2023/03/09 03:30:06;;;;;;;0.93;0.50;;;;;;;7.09;100.00;93476.22;5001940;28;20057;-72
2023/03/09 03:32:31;;;;;;;1.45;0.70;;;;;;;6.99;100.00;93489.53;5007174;28;20156;-72
2023/03/09 03:34:57;;;;;;;1.45;0.52;;;;;;;7.14;100.00;93482.41;5001629;28;20088;-72
2023/03/09 03:37:22;;;;;;;0.60;0.60;;;;;;;7.03;100.00;93472.19;5008758;28;20050;-72
2023/03/09 03:39:48;;;;;;;0.80;0.70;;;;;;;7.14;100.00;93461.50;5005604;28;20133;-72
2023/03/09 03:42:13;;;;;;;0.45;0.45;;;;;;;7.26;100.00;93464.34;5005661;28;20093;-72
2023/03/09 03:44:39;;;;;;;0.75;0.57;;;;;;;7.26;100.00;93474.81;5009489;28;20120;-72
2023/03/09 03:47:04;;;;;;;0.57;0.57;;;;;;;7.34;100.00;93481.16;5013505;28;20505;-72
2023/03/09 03:49:30;;;;;;;1.77;0.60;;;;;;;7.18;100.00;93484.13;5010072;28;20130;-71
2023/03/09 03:51:56;;;;;;;1.73;0.70;;;;;;;7.22;100.00;93438.00;5011496;28;20041;-72
2023/03/09 03:54:21;;;;;;;1.60;0.70;;;;;;;7.17;100.00;93450.44;5011989;28;20046;-72
2023/03/09 03:56:47;;;;;;;1.75;0.75;;;;;;;7.16;100.00;93448.91;5010850;28;20049;-72
2023/03/09 03:59:13;;;;;;;0.80;0.80;;;;;;;7.28;100.00;93454.34;5010936;28;20037;-72
2023/03/09 04:01:38;;;;;;;1.40;0.80;;;;;;;7.29;100.00;93464.50;5009660;28;20050;-72
2023/03/09 04:04:04;;;;;;;1.80;0.80;;;;;;;7.13;100.00;93475.66;5009459;28;20038;-72
2023/03/09 04:06:30;;;;;;;4.97;1.00;;;;;;;7.24;100.00;93464.66;5012034;28;20088;-72
2023/03/09 04:08:56;;;;;;;2.17;0.73;;;;;;;7.16;100.00;93454.13;5010370;28;20042;-72
2023/03/09 04:11:21;;;;;;;1.60;0.80;;;;;;;7.06;100.00;93434.97;5007610;28;20144;-72
2023/03/09 04:13:48;;;;;;;3.53;0.88;;;;;;;7.18;100.00;93431.81;5009752;28;20042;-73
2023/03/09 04:16:14;;;;;;;3.70;1.35;;;;;;;7.29;100.00;93432.34;5010924;28;20042;-72
2023/03/09 04:18:40;;;;;;;2.42;0.85;;;;;;;7.26;100.00;93448.66;5010499;28;20042;-72
2023/03/09 04:21:05;;;;;;;3.22;1.23;;;;;;;7.37;100.00;93447.34;5006451;28;20042;-72
2023/03/09 04:23:31;;;;;;;0.68;0.60;;;;;;;7.31;100.00;93456.38;5008518;28;20046;-72
2023/03/09 04:25:59;;;;;;;2.65;0.93;;;;;;;7.40;100.00;93469.53;5010752;28;20053;-72
2023/03/09 04:28:25;;;;;;;2.45;1.08;;;;;;;7.40;100.00;93478.13;5012638;28;20046;-72
2023/03/09 04:30:51;;;;;;;3.38;1.05;;;;;;;7.39;100.00;93479.19;5008614;28;20088;-72
2023/03/09 04:33:16;;;;;;;4.32;1.08;;;;;;;7.27;100.00;93468.53;5009322;28;20493;-72
2023/03/09 04:35:42;;;;;;;1.33;1.00;;;;;;;7.22;100.00;93458.16;5011038;28;20045;-72
2023/03/09 04:38:09;;;;;;;2.28;1.05;;;;;;;7.23;100.00;93470.94;5011622;28;20080;-72
2023/03/09 04:40:35;;;;;;;3.15;1.45;;;;;;;7.22;100.00;93490.31;5011378;28;20745;-72
2023/03/09 04:43:01;;;;;;;1.58;0.75;;;;;;;7.37;100.00;93491.03;5008767;28;20041;-72
2023/03/09 04:45:26;;;;;;;1.30;0.60;;;;;;;7.23;100.00;93491.13;5010798;28;20053;-72
2023/03/09 04:47:52;;;;;;;4.75;1.05;;;;;;;7.25;100.00;93494.19;5011316;28;20045;-72
2023/03/09 04:50:18;;;;;;;4.57;0.95;;;;;;;7.17;100.00;93505.34;5008946;28;20046;-72
2023/03/09 04:52:44;;;;;;;2.92;0.68;;;;;;;7.13;100.00;93509.66;5008833;28;20458;-72
2023/03/09 04:55:09;;;;;;;4.15;0.82;;;;;;;7.16;100.00;93514.28;5009256;28;20104;-71
2023/03/09 04:57:35;;;;;;;3.35;0.98;;;;;;;7.07;100.00;93515.00;5011678;28;20120;-70
2023/03/09 05:00:02;;;;;;;1.67;0.95;;;;;;;7.09;100.00;93517.31;5005850;28;20038;-70
2023/03/09 05:02:28;;;;;;;3.05;1.05;;;;;;;7.05;100.00;93522.38;5010661;28;20046;-72
2023/03/09 05:04:54;;;;;;;3.80;1.40;;;;;;;7.09;100.00;93539.00;5009292;28;20116;-71
2023/03/09 05:07:20;;;;;;;2.35;0.90;;;;;;;6.93;100.00;93563.94;5009996;28;20505;-72
2023/03/09 05:09:46;;;;;;;3.03;1.33;;;;;;;6.74;100.00;93559.63;5011406;28;20042;-72
2023/03/09 05:12:11;;;;;;;3.05;1.25;;;;;;;6.66;100.00;93562.91;5002693;28;20088;-73
2023/03/09 05:14:37;;;;;;;3.17;1.33;;;;;;;6.59;100.00;93565.94;5010398;28;20049;-73
2023/03/09 05:17:03;;;;;;;4.85;1.25;;;;;;;6.52;100.00;93556.91;5010150;28;20129;-74
2023/03/09 05:19:29;;;;;;;3.50;0.93;;;;;;;6.50;100.00;93559.81;5010686;28;20559;-74
2023/03/09 05:21:54;;;;;;;3.08;1.27;;;;;;;6.46;100.00;93573.75;5010443;28;20125;-74
2023/03/09 05:24:20;;;;;;;3.80;1.52;;;;;;;6.44;100.00;93570.66;5008125;28;20068;-73
2023/03/09 05:26:46;;;;;;;2.95;1.20;;;;;;;6.47;100.00;93586.53;5009354;28;20038;-73
2023/03/09 05:29:11;;;;;;;2.70;1.23;;;;;;;6.50;100.00;93612.09;5010894;28;20041;-73
2023/03/09 05:31:37;;;;;;;4.78;1.30;;;;;;;6.55;100.00;93619.03;5007958;28;20092;-73
2023/03/09 05:34:02;;;;;;;2.40;1.30;;;;;;;6.53;100.00;93605.50;5002860;28;20421;-73
2023/03/09 05:36:29;;;;;;;2.50;1.17;;;;;;;6.49;100.00;93607.16;5008008;28;20748;-74
2023/03/09 05:38:54;;;;;;;7.57;1.48;;;;;;;6.40;100.00;93613.03;5010073;28;20049;-74
2023/03/09 05:41:21;;;;;;;4.32;1.10;;;;;;;6.32;100.00;93637.25;5011154;28;20038;-73
2023/03/09 05:43:46;;;;;;;1.63;0.77;;;;;;;6.27;100.00;93639.94;5006832;28;20041;-73
2023/03/09 05:46:14;;;;;;;1.25;0.85;;;;;;;6.17;100.00;93650.56;5010514;28;20057;-74
2023/03/09 05:48:40;;;;;;;2.20;0.70;;;;;;;6.11;100.00;93659.53;5008416;28;20073;-74
2023/03/09 05:51:07;;;;;;;1.10;0.80;;;;;;;6.06;100.00;93655.94;5006360;28;20073;-74
2023/03/09 05:53:34;;;;;;;1.08;0.75;;;;;;;5.99;100.00;93671.19;5021067;28;20504;-74
2023/03/09 05:56:01;;;;;;;2.72;0.77;;;;;;;5.99;100.00;93671.19;5007622;28;20088;-74
2023/03/09 05:58:27;;;;;;;3.45;0.93;;;;;;;6.01;100.00;93674.28;5007335;28;20460;-75
2023/03/09 06:00:53;;;;;;;2.05;0.57;;;;;;;6.01;100.00;93705.63;5005964;28;20041;-74
2023/03/09 06:03:19;;;;;;;3.38;0.95;;;;;;;5.96;100.00;93703.09;5005482;28;20038;-74
2023/03/09 06:05:45;;;;;;;1.90;0.57;;;;;;;5.91;100.00;93710.97;5011351;28;20049;-74
2023/03/09 06:08:11;;;;;;;2.28;0.57;;;;;;;5.92;100.00;93717.75;5013186;28;20038;-74
2023/03/09 06:10:37;;;;;;;0.60;0.60;;;;;;;5.89;100.00;93718.31;5005703;28;20092;-75
2023/03/09 06:13:03;;;;;;;1.02;0.90;;;;;;;5.86;100.00;93724.09;5012844;28;20053;-74
2023/03/09 06:15:28;;;;;;;2.03;0.70;;;;;;;5.85;100.00;93725.16;5010716;28;20604;-74
2023/03/09 06:17:54;;;;;;;1.48;0.73;;;;;;;5.87;100.00;93728.25;5011561;28;20053;-74
2023/03/09 06:20:20;;;;;;;3.80;0.80;;;;;;;5.84;100.00;93715.78;5008833;28;20042;-73
2023/03/09 06:22:46;;;;;;;1.10;0.70;;;;;;;5.86;100.00;93744.97;5010598;28;20060;-74
2023/03/09 06:25:13;;;;;;;3.13;1.45;;;;;;;5.84;100.00;93762.75;5010971;28;20046;-74
2023/03/09 06:27:38;;;;;;;3.20;0.98;;;;;;;5.86;100.00;93763.25;5008755;28;20041;-74
2023/03/09 06:30:05;;;;;;;2.85;1.15;;;;;;;5.94;100.00;93783.50;5006478;28;20123;-73
2023/03/09 06:32:34;;;;;;;1.90;0.88;;;;;;;5.95;100.00;93769.41;5008855;28;20049;-75
2023/03/09 06:35:00;;;;;;;4.07;1.10;;;;;;;5.93;100.00;93787.16;5024437;28;20034;-74
2023/03/09 06:37:26;;;;;;;1.52;0.80;;;;;;;5.97;100.00;93788.19;5011705;28;20104;-74
2023/03/09 06:39:52;;;;;;;4.70;1.02;;;;;;;5.99;100.00;93801.75;5011610;28;20034;-74
2023/03/09 06:42:17;;;;;;;1.15;0.80;;;;;;;5.91;100.00;93807.56;5010549;28;20559;-74
2023/03/09 06:44:44;;;;;;;1.92;0.80;;;;;;;6.00;100.00;93816.34;5015039;28;20073;-75
2023/03/09 06:47:10;;;;;;;6.57;0.93;;;;;;;6.15;100.00;93823.22;5033409;28;20058;-72
2023/03/09 06:49:36;;;;;;;2.78;1.10;;;;;;;6.15;100.00;93830.25;5030988;28;20077;-74
2023/03/09 06:52:02;;;;;;;5.25;1.10;;;;;;;6.19;100.00;93841.69;5027672;28;20085;-73
2023/03/09 06:54:27;;;;;;;3.13;1.17;;;;;;;6.18;100.00;93843.53;5036052;28;20056;-71
2023/03/09 06:56:53;;;;;;;2.25;1.25;;;;;;;6.24;100.00;93862.53;5033208;28;20054;-72
2023/03/09 06:59:18;;;;;;;1.52;0.82;;;;;;;6.27;100.00;93869.81;5034388;28;20034;-72
2023/03/09 07:01:45;;;;;;;8.90;1.67;;;;;;;6.27;100.00;93880.25;5031813;28;20101;-71
2023/03/09 07:04:11;;;;;;;5.45;1.10;;;;;;;6.30;100.00;93879.69;5033649;28;20045;-72
2023/03/09 07:06:36;;;;;;;2.25;0.95;;;;;;;6.32;100.00;93893.25;5032268;28;20064;-72
2023/03/09 07:09:03;;;;;;;1.67;0.70;;;;;;;6.33;100.00;93900.03;5010133;28;20046;-73
2023/03/09 07:11:29;;;;;;;2.50;0.98;;;;;;;6.37;100.00;93895.78;5006530;28;20053;-73
2023/03/09 07:13:54;;;;;;;1.25;0.70;;;;;;;6.41;100.00;93912.47;5007943;28;20046;-73
2023/03/09 07:16:20;;;;;;;1.48;0.68;;;;;;;6.41;100.00;93912.47;5012036;28;20417;-73
2023/03/09 07:18:45;;;;;;;2.70;1.05;;;;;;;6.46;100.00;93918.69;5013871;28;20137;-73
2023/03/09 07:21:11;;;;;;;3.35;1.05;;;;;;;6.45;100.00;93917.13;5022450;28;20556;-75
2023/03/09 07:23:36;;;;;;;1.48;0.88;;;;;;;6.49;100.00;93928.56;5012088;28;20042;-75
2023/03/09 07:26:04;;;;;;;1.77;0.82;;;;;;;6.54;100.00;93936.34;5015323;28;20045;-73
2023/03/09 07:28:30;;;;;;;4.10;0.73;;;;;;;6.61;100.00;93936.78;5015507;28;20702;-74
2023/03/09 07:30:56;;;;;;;3.55;0.85;;;;;;;6.57;100.00;93941.03;5015472;28;20556;-74
2023/03/09 07:33:22;;;;;;;0.50;0.50;;;;;;;6.65;100.00;93953.47;5020140;28;20046;-73
2023/03/09 07:35:48;;;;;;;1.58;0.60;;;;;;;6.67;100.00;93935.66;5019588;28;20042;-73
2023/03/09 07:38:13;;;;;;;1.08;0.55;;;;;;;6.65;100.00;93948.22;5031870;28;20053;-73
2023/03/09 07:40:39;;;;;;;2.03;0.63;;;;;;;6.71;100.00;93956.75;5026952;28;20041;-75
2023/03/09 07:43:06;;;;;;;2.22;0.90;;;;;;;6.72;100.00;93969.56;5015481;28;20046;-73
2023/03/09 07:45:31;;;;;;;1.30;0.70;;;;;;;6.87;100.00;93971.19;5025948;28;20064;-73
2023/03/09 07:47:57;;;;;;;1.83;0.80;;;;;;;7.03;100.00;93973.59;5017477;28;20096;-73
2023/03/09 07:50:23;;;;;;;6.75;0.70;;;;;;;7.09;100.00;93983.69;5012633;28;20046;-73
2023/03/09 07:52:49;;;;;;;1.08;0.70;;;;;;;7.19;100.00;93987.22;5014984;28;20041;-73
2023/03/09 07:55:15;;;;;;;1.08;0.60;;;;;;;7.19;100.00;93997.69;5016670;28;20057;-73
2023/03/09 07:57:42;;;;;;;1.50;0.90;;;;;;;7.22;100.00;93999.72;5014771;28;20088;-74
2023/03/09 08:00:12;;;;;;;0.30;0.30;;;;;;;7.23;100.00;94004.69;5013973;28;20042;-73
2023/03/09 08:02:41;;;;;;;3.35;0.47;;;;;;;7.22;100.00;94024.03;5015370;28;20169;-73
2023/03/09 08:05:09;;;;;;;0.45;0.30;;;;;;;7.15;100.00;94017.63;5007140;28;20456;-72
2023/03/09 08:07:35;;;;;;;0.80;0.60;;;;;;;7.20;100.00;94010.47;5016073;28;20042;-72
2023/03/09 08:10:02;;;;;;;1.98;0.70;;;;;;;7.25;100.00;94031.31;5014205;28;20444;-71
2023/03/09 08:12:28;;;;;;;0.85;0.52;;;;;;;7.38;100.00;94027.22;5015113;28;20077;-72
2023/03/09 08:14:53;;;;;;;0.85;0.40;;;;;;;7.51;100.00;94043.25;5013769;28;20046;-72
2023/03/09 08:17:19;;;;;;;1.02;0.35;;;;;;;7.42;100.00;94051.00;5017071;28;20050;-72
2023/03/09 08:19:44;;;;;;;2.30;0.65;;;;;;;7.37;100.00;94049.22;5011348;28;20037;-73
2023/03/09 08:22:10;;;;;;;0.52;0.40;;;;;;;7.41;100.00;94063.31;5010966;28;20070;-73
2023/03/09 08:24:36;;;;;;;0.65;0.43;;;;;;;7.44;100.00;94070.59;5015393;28;20092;-73
2023/03/09 08:27:01;;;;;;;0.43;0.40;;;;;;;7.60;100.00;94072.94;5014952;28;20034;-73
2023/03/09 08:29:27;;;;;;;0.30;0.30;;;;;;;7.69;100.00;94078.34;5012623;28;20452;-72
2023/03/09 08:31:52;;;;;;;3.10;0.40;;;;;;;7.63;100.00;94085.50;5011806;28;20050;-73
2023/03/09 08:34:19;;;;;;;1.92;0.55;;;;;;;7.64;100.00;94081.78;5008807;28;20053;-73
2023/03/09 08:36:45;;;;;;;0.65;0.60;;;;;;;7.53;100.00;94094.28;5012139;28;20046;-73
2023/03/09 08:39:11;;;;;;;2.08;0.60;;;;;;;7.60;100.00;94101.75;5011706;28;20049;-72
2023/03/09 08:41:36;;;;;;;1.52;0.60;;;;;;;7.49;100.00;94105.59;5011245;28;20037;-72
2023/03/09 08:44:02;;;;;;;0.82;0.55;;;;;;;7.46;100.00;94102.47;5012313;28;20060;-73
2023/03/09 08:46:28;;;;;;;0.55;0.45;;;;;;;7.55;100.00;94094.00;5011224;28;20046;-73
2023/03/09 08:48:53;;;;;;;1.67;0.70;;;;;;;7.77;100.00;94104.66;5015461;28;20041;-72
2023/03/09 08:51:19;;;;;;;1.95;0.80;;;;;;;7.76;100.00;94105.72;5013017;28;20053;-74
2023/03/09 08:53:45;;;;;;;0.73;0.60;;;;;;;7.68;100.00;94114.22;5011665;28;20473;-73
2023/03/09 08:56:12;;;;;;;1.08;0.55;;;;;;;7.84;100.00;94111.38;5016497;28;20037;-72
2023/03/09 08:58:38;;;;;;;0.77;0.70;;;;;;;8.12;100.00;94107.75;5010811;28;20037;-73
2023/03/09 09:01:07;;;;;;;2.00;0.68;;;;;;;8.29;100.00;94111.69;5012113;28;20555;-73
2023/03/09 09:03:33;;;;;;;0.88;0.40;;;;;;;8.34;100.00;94103.72;5008561;28;20042;-75
2023/03/09 09:06:04;;;;;;;1.73;0.63;;;;;;;8.41;100.00;94113.84;5012168;28;20041;-71
2023/03/09 09:08:29;;;;;;;1.83;0.82;;;;;;;8.61;100.00;94104.84;5009507;28;20677;-73
2023/03/09 09:10:56;;;;;;;1.55;0.50;;;;;;;8.69;100.00;94104.16;5016746;28;20129;-75
2023/03/09 09:13:23;;;;;;;0.98;0.63;;;;;;;9.08;100.00;94116.03;5010149;28;20076;-74
2023/03/09 09:15:52;;;;;;;1.67;0.60;;;;;;;9.24;100.00;94113.06;5028911;28;20084;-73
2023/03/09 09:18:18;;;;;;;1.75;0.63;;;;;;;9.47;100.00;94112.06;5022465;28;20050;-73
2023/03/09 09:20:43;;;;;;;1.45;0.73;;;;;;;9.48;100.00;94123.31;5025746;28;20038;-75
2023/03/09 09:23:09;;;;;;;2.85;0.77;;;;;;;9.63;100.00;94130.09;5021605;28;20042;-73
2023/03/09 09:25:34;;;;;;;2.90;0.95;;;;;;;9.77;100.00;94125.59;5014106;28;20516;-71
2023/03/09 09:28:00;;;;;;;2.85;0.98;;;;;;;9.83;100.00;94121.75;5011263;28;20038;-72
2023/03/09 09:30:27;;;;;;;3.50;0.75;;;;;;;9.79;100.00;94123.41;5026120;28;20046;-73
2023/03/09 09:32:52;;;;;;;3.42;1.20;;;;;;;9.76;100.00;94136.41;5028247;28;20049;-75
2023/03/09 09:35:18;;;;;;;2.38;0.70;;;;;;;9.63;100.00;94130.09;5010842;28;20045;-73
2023/03/09 09:37:43;;;;;;;5.50;1.63;;;;;;;9.56;100.00;94135.00;5010055;28;20052;-73
2023/03/09 09:40:13;;;;;;;3.40;1.20;;;;;;;9.52;100.00;94140.84;5010967;28;20070;-74
2023/03/09 09:42:40;;;;;;;4.05;1.02;;;;;;;9.62;100.00;94139.06;5016420;28;20103;-73
2023/03/09 09:45:24;;;;;;;10.00;1.20;;;;;;;9.67;100.00;94136.31;5010144;28;20061;-74
2023/03/09 09:47:51;;;;;;;5.13;1.33;;;;;;;9.97;100.00;94131.44;5005927;28;20088;-73
2023/03/09 09:50:17;;;;;;;2.85;0.95;;;;;;;10.18;100.00;94140.38;5008880;28;20038;-74
2023/03/09 09:52:49;;;;;;;3.17;1.10;;;;;;;10.19;100.00;94134.06;5012049;28;20042;-73
2023/03/09 09:55:25;;;;;;;4.43;1.25;;;;;;;10.26;100.00;94151.25;5014743;28;20568;-73
2023/03/09 09:58:08;;;;;;;3.13;0.77;;;;;;;10.17;100.00;94149.38;5018210;28;20049;-74
2023/03/09 10:00:44;;;;;;;3.45;1.02;;;;;;;10.09;100.00;94142.19;5010492;28;20042;-74
2023/03/09 10:03:27;;;;;;;5.25;1.25;;;;;;;10.19;100.00;94136.69;5010194;28;20104;-74
2023/03/09 10:06:11;;;;;;;1.35;0.80;;;;;;;10.10;100.00;94146.38;5010201;28;20038;-74
2023/03/09 10:08:55;;;;;;;3.20;0.85;;;;;;;10.12;100.00;94146.06;5013785;28;20033;-73
2023/03/09 10:11:26;;;;;;;6.30;1.33;;;;;;;10.14;100.00;94149.97;5008152;28;20505;-74
2023/03/09 10:14:06;;;;;;;1.70;0.75;;;;;;;10.08;100.00;94177.44;5019260;28;20063;-73
2023/03/09 10:16:43;;;;;;;4.40;1.00;;;;;;;10.17;100.00;94162.50;5026257;28;20128;-73
2023/03/09 10:19:16;;;;;;;1.85;0.70;;;;;;;10.37;100.00;94168.38;5007815;28;20053;-74
2023/03/09 10:22:03;;;;;;;2.30;0.73;;;;;;;10.43;100.00;94166.38;5012004;28;20099;-74
2023/03/09 10:24:29;;;;;;;2.60;0.65;;;;;;;10.52;100.00;94170.63;5015808;28;20046;-74
2023/03/09 10:27:26;;;;;;;1.50;0.88;;;;;;;10.95;100.00;94168.50;5017929;28;20065;-74
2023/03/09 10:30:02;;;;;;;3.30;0.80;;;;;;;11.77;100.00;94166.97;5006145;28;20058;-74
2023/03/09 10:32:40;;;;;;;3.40;1.00;;;;;;;11.83;100.00;94178.16;5023622;28;20037;-76
2023/03/09 10:35:31;;;;;;;1.98;0.88;;;;;;;10.88;100.00;94182.09;5002807;28;20100;-74
2023/03/09 10:37:57;;;;;;;0.95;0.60;;;;;;;10.37;100.00;94190.19;5016305;28;20501;-74
2023/03/09 10:40:26;;;;;;;4.07;1.02;;;;;;;10.40;100.00;94180.91;5017759;28;20049;-74
2023/03/09 10:42:52;;;;;;;1.88;0.85;;;;;;;10.43;100.00;94172.44;5009237;28;20505;-74
2023/03/09 10:45:29;;;;;;;4.43;0.82;;;;;;;10.72;100.00;94189.63;5009518;28;20072;-74
2023/03/09 10:48:06;;;;;;;4.05;0.80;;;;;;;10.68;100.00;94193.94;5001497;28;20140;-74
2023/03/09 10:50:35;;;;;;;4.18;1.30;;;;;;;11.13;100.00;94193.81;5008356;28;20049;-74
2023/03/09 10:53:22;;;;;;;5.47;1.83;;;;;;;11.13;100.00;94195.66;5012310;28;20100;-72
2023/03/09 10:55:48;;;;;;;2.00;1.00;;;;;;;11.40;100.00;94199.94;5038900;28;20128;-70
2023/03/09 10:58:21;;;;;;;5.80;1.17;;;;;;;11.46;100.00;94190.03;5034340;28;20052;-73
2023/03/09 11:01:04;;;;;;;4.32;1.50;;;;;;;10.84;100.00;94192.44;5026527;28;20073;-73
2023/03/09 11:03:36;;;;;;;4.22;1.20;;;;;;;10.72;100.00;94177.22;5010088;28;20049;-73
2023/03/09 11:06:27;;;;;;;2.90;0.90;;;;;;;10.79;100.00;94179.44;5010641;28;20076;-74
2023/03/09 11:08:59;;;;;;;5.50;1.30;;;;;;;11.27;100.00;94168.13;5015652;28;20496;-74
2023/03/09 11:11:27;;;;;;;5.28;1.25;;;;;;;11.70;100.00;94179.06;5031298;28;20133;-75
2023/03/09 11:13:54;;;;;;;5.47;1.27;;;;;;;11.32;100.00;94171.72;5015879;28;20038;-75
2023/03/09 11:16:29;;;;;;;6.40;1.33;;;;;;;12.11;100.00;94172.59;5015002;28;20560;-73
2023/03/09 11:19:12;;;;;;;6.80;1.58;;;;;;;13.31;100.00;94195.56;5014482;28;20042;-74
2023/03/09 11:21:51;;;;;;;6.85;1.67;;;;;;;13.13;95.93;94167.66;5011402;28;20429;-74
2023/03/09 11:24:18;;;;;;;6.18;1.33;;;;;;;12.51;98.05;94185.56;5015136;28;20485;-74
2023/03/09 11:27:25;;;;;;;5.78;1.40;;;;;;;12.09;100.00;94180.81;5012051;28;20042;-75
2023/03/09 11:30:01;;;;;;;4.65;1.40;;;;;;;12.47;100.00;94176.75;5010083;28;20429;-75
2023/03/09 11:32:27;;;;;;;7.15;1.50;;;;;;;11.82;97.79;94181.84;5013816;28;20037;-74
2023/03/09 11:34:53;;;;;;;3.30;1.33;;;;;;;12.09;95.55;94177.41;5012755;28;20042;-75